createdAt,value
2022-11-09T00:01:39.083Z,8.32
2022-11-09T00:04:06.776Z,8.93
2022-11-09T00:06:34.613Z,10.00
2022-11-09T00:09:07.446Z,9.57
2022-11-09T00:11:36.299Z,9.60
2022-11-09T00:14:02.885Z,8.80
2022-11-09T00:16:29.185Z,11.55
2022-11-09T00:18:55.930Z,7.70
2022-11-09T00:21:24.234Z,9.80
2022-11-09T00:23:51.289Z,9.75
2022-11-09T00:26:19.259Z,8.32
2022-11-09T00:28:45.927Z,6.65
2022-11-09T00:31:16.147Z,9.40
2022-11-09T00:33:42.475Z,9.82
2022-11-09T00:36:14.019Z,10.60
2022-11-09T00:38:40.899Z,6.90
2022-11-09T00:41:09.185Z,10.48
2022-11-09T00:43:36.118Z,8.85
2022-11-09T00:46:03.106Z,8.20
2022-11-09T00:48:29.947Z,9.15
2022-11-09T00:50:57.625Z,8.88
2022-11-09T00:53:25.358Z,9.52
2022-11-09T00:56:00.576Z,9.63
2022-11-09T00:58:29.523Z,9.63
2022-11-09T01:00:57.625Z,7.90
2022-11-09T01:06:53.361Z,10.00
2022-11-09T01:09:19.704Z,10.27
2022-11-09T01:11:46.031Z,9.10
2022-11-09T01:14:12.339Z,10.07
2022-11-09T01:16:39.035Z,9.60
2022-11-09T01:19:05.774Z,8.80
2022-11-09T01:21:32.391Z,9.50
2022-11-09T01:23:59.086Z,8.50
2022-11-09T01:26:25.438Z,10.18
2022-11-09T01:28:51.780Z,9.75
2022-11-09T01:31:20.167Z,7.95
2022-11-09T01:33:46.905Z,8.07
2022-11-09T01:36:16.370Z,13.90
2022-11-09T01:38:43.516Z,8.88
2022-11-09T01:41:14.824Z,9.27
2022-11-09T01:43:41.244Z,9.10
2022-11-09T01:46:20.544Z,9.25
2022-11-09T01:48:50.012Z,9.35
2022-11-09T01:51:23.816Z,10.77
2022-11-09T01:53:54.960Z,12.55
2022-11-09T01:56:21.443Z,8.85
2022-11-09T01:58:55.305Z,10.38
2022-11-09T02:01:21.884Z,7.53
2022-11-09T02:04:20.091Z,8.27
2022-11-09T02:06:47.364Z,7.63
2022-11-09T02:09:26.539Z,10.65
2022-11-09T02:11:53.060Z,7.25
2022-11-09T02:14:21.824Z,10.48
2022-11-09T02:16:48.625Z,10.50
2022-11-09T02:19:14.983Z,8.13
2022-11-09T02:21:41.511Z,11.93
2022-11-09T02:24:07.970Z,9.27
2022-11-09T02:26:43.532Z,7.97
2022-11-09T02:29:13.381Z,7.38
2022-11-09T02:31:45.275Z,8.93
2022-11-09T02:34:15.164Z,7.40
2022-11-09T02:36:43.440Z,8.40
2022-11-09T02:39:10.810Z,8.02
2022-11-09T02:41:54.419Z,9.75
2022-11-09T02:44:20.897Z,8.23
2022-11-09T02:46:47.240Z,12.38
2022-11-09T02:49:13.577Z,9.77
2022-11-09T02:51:39.887Z,10.57
2022-11-09T02:54:06.271Z,9.00
2022-11-09T02:56:32.634Z,9.68
2022-11-09T02:58:58.938Z,8.95
2022-11-09T03:01:25.397Z,7.45
2022-11-09T03:03:51.741Z,10.27
2022-11-09T03:06:18.075Z,6.30
2022-11-09T03:08:44.394Z,8.93
2022-11-09T03:11:10.737Z,6.90
2022-11-09T03:13:37.316Z,6.10
2022-11-09T03:16:05.863Z,6.55
2022-11-09T03:18:32.211Z,7.22
2022-11-09T03:21:03.391Z,6.32
2022-11-09T03:23:30.125Z,7.68
2022-11-09T03:25:56.530Z,7.32
2022-11-09T03:28:22.873Z,8.13
2022-11-09T03:30:49.271Z,9.85
2022-11-09T03:33:15.587Z,7.22
2022-11-09T03:35:43.631Z,9.27
2022-11-09T03:38:10.127Z,9.73
2022-11-09T03:40:36.468Z,7.75
2022-11-09T03:43:02.869Z,9.20
2022-11-09T03:45:29.210Z,9.25
2022-11-09T03:48:00.358Z,9.05
2022-11-09T03:50:33.023Z,12.25
2022-11-09T03:53:01.845Z,10.75
2022-11-09T03:55:28.716Z,11.38
2022-11-09T03:57:55.352Z,10.75
2022-11-09T04:00:22.984Z,12.15
2022-11-09T04:02:49.826Z,10.00
2022-11-09T04:05:16.249Z,11.10
2022-11-09T04:07:50.742Z,12.27
2022-11-09T04:10:17.342Z,13.98
2022-11-09T04:12:44.443Z,10.55
2022-11-09T04:15:11.798Z,12.40
2022-11-09T04:17:38.716Z,14.52
2022-11-09T04:20:07.446Z,13.27
2022-11-09T04:22:34.335Z,15.77
2022-11-09T04:25:00.923Z,13.82
2022-11-09T04:27:27.288Z,16.35
2022-11-09T04:29:53.694Z,15.52
2022-11-09T04:32:20.031Z,16.27
2022-11-09T04:34:46.371Z,15.05
2022-11-09T04:37:12.671Z,15.52
2022-11-09T04:39:39.004Z,14.70
2022-11-09T04:42:05.455Z,14.88
2022-11-09T04:44:31.897Z,16.42
2022-11-09T04:46:58.203Z,18.15
2022-11-09T04:49:24.717Z,17.23
2022-11-09T04:51:51.107Z,13.35
2022-11-09T04:54:17.411Z,14.38
2022-11-09T04:56:43.740Z,14.77
2022-11-09T04:59:10.063Z,16.02
2022-11-09T05:01:36.339Z,13.35
2022-11-09T05:04:02.734Z,14.70
2022-11-09T05:06:32.141Z,14.63
2022-11-09T05:09:07.012Z,20.02
2022-11-09T05:11:35.210Z,14.75
2022-11-09T05:14:02.070Z,13.82
2022-11-09T05:16:29.294Z,17.38
2022-11-09T05:18:55.796Z,20.20
2022-11-09T05:21:22.175Z,17.10
2022-11-09T05:24:00.694Z,18.13
2022-11-09T05:26:35.847Z,15.75
2022-11-09T05:29:04.872Z,19.73
2022-11-09T05:31:31.337Z,15.70
2022-11-09T05:33:59.254Z,18.30
2022-11-09T05:36:27.713Z,15.90
2022-11-09T05:38:54.698Z,19.13
2022-11-09T05:41:21.271Z,16.73
2022-11-09T05:43:48.141Z,18.45
2022-11-09T05:46:15.500Z,16.90
2022-11-09T05:48:43.114Z,15.05
2022-11-09T05:51:12.619Z,20.33
2022-11-09T05:53:42.401Z,20.10
2022-11-09T05:56:13.434Z,16.80
2022-11-09T05:58:41.172Z,18.30
2022-11-09T06:01:18.948Z,17.08
2022-11-09T06:03:45.364Z,15.98
2022-11-09T06:06:14.122Z,19.55
2022-11-09T06:08:40.793Z,16.88
2022-11-09T06:11:09.823Z,16.65
2022-11-09T06:13:36.763Z,18.52
2022-11-09T06:16:05.235Z,16.35
2022-11-09T06:18:33.062Z,19.08
2022-11-09T06:21:01.929Z,17.50
2022-11-09T06:23:29.325Z,16.77
2022-11-09T06:25:57.929Z,18.00
2022-11-09T06:28:24.249Z,17.52
2022-11-09T06:30:50.549Z,17.77
2022-11-09T06:33:17.046Z,18.42
2022-11-09T06:35:43.562Z,16.83
2022-11-09T06:38:11.430Z,16.73
2022-11-09T06:40:37.885Z,16.85
2022-11-09T06:43:04.203Z,19.42
2022-11-09T06:45:31.073Z,21.60
2022-11-09T06:47:59.354Z,17.23
2022-11-09T06:50:26.772Z,19.73
2022-11-09T06:53:01.398Z,19.23
2022-11-09T06:55:29.398Z,19.40
2022-11-09T06:57:56.239Z,17.85
2022-11-09T07:00:24.307Z,18.48
2022-11-09T07:02:51.252Z,20.30
2022-11-09T07:05:17.979Z,22.73
2022-11-09T07:07:44.456Z,20.15
2022-11-09T07:10:11.704Z,19.63
2022-11-09T07:12:38.018Z,18.48
2022-11-09T07:15:05.895Z,19.65
2022-11-09T07:17:33.328Z,19.52
2022-11-09T07:20:00.245Z,18.38
2022-11-09T07:22:29.548Z,16.05
2022-11-09T07:24:55.915Z,17.15
2022-11-09T07:27:27.500Z,17.20
2022-11-09T07:29:54.538Z,14.48
2022-11-09T07:32:24.596Z,19.30
2022-11-09T07:35:02.174Z,16.75
2022-11-09T07:37:28.649Z,15.98
2022-11-09T07:39:54.971Z,14.23
2022-11-09T07:42:21.355Z,16.73
2022-11-09T07:44:47.651Z,13.70
2022-11-09T07:47:18.183Z,13.30
2022-11-09T07:49:45.171Z,14.50
2022-11-09T07:52:12.002Z,13.98
2022-11-09T07:54:39.401Z,15.32
2022-11-09T07:57:06.554Z,15.70
2022-11-09T07:59:33.288Z,12.50
2022-11-09T08:01:59.699Z,17.77
2022-11-09T08:04:26.138Z,14.15
2022-11-09T08:06:53.258Z,14.48
2022-11-09T08:09:19.916Z,14.68
2022-11-09T08:11:46.368Z,11.30
2022-11-09T08:14:12.738Z,9.98
2022-11-09T08:16:39.364Z,10.00
2022-11-09T08:19:05.724Z,8.13
2022-11-09T08:21:32.115Z,8.40
2022-11-09T08:23:58.443Z,7.85
2022-11-09T08:26:24.752Z,9.48
2022-11-09T08:28:51.065Z,10.05
2022-11-09T08:31:17.374Z,9.38
2022-11-09T08:33:43.669Z,11.00
2022-11-09T08:36:15.732Z,8.70
2022-11-09T08:38:43.467Z,6.85
2022-11-09T08:41:13.572Z,6.13
2022-11-09T08:43:40.375Z,5.95
2022-11-09T08:46:06.751Z,7.32
2022-11-09T08:48:33.112Z,7.20
2022-11-09T08:51:00.047Z,6.82
2022-11-09T08:53:27.984Z,7.22
2022-11-09T08:55:54.416Z,6.13
2022-11-09T08:58:22.458Z,6.97
2022-11-09T09:00:49.063Z,9.68
2022-11-09T09:03:15.399Z,7.28
2022-11-09T09:05:41.758Z,7.47
2022-11-09T09:08:08.231Z,7.10
2022-11-09T09:10:38.012Z,7.68
2022-11-09T09:13:04.833Z,6.57
2022-11-09T09:15:31.809Z,5.82
2022-11-09T09:18:02.375Z,9.25
2022-11-09T09:20:29.233Z,4.75
2022-11-09T09:22:59.515Z,7.43
2022-11-09T09:25:26.845Z,6.28
2022-11-09T09:27:53.154Z,6.07
2022-11-09T09:30:19.660Z,5.68
2022-11-09T09:32:45.978Z,5.32
2022-11-09T09:35:12.806Z,6.25
2022-11-09T09:37:39.187Z,6.03
2022-11-09T09:40:06.340Z,5.28
2022-11-09T09:42:41.844Z,5.40
2022-11-09T09:50:37.999Z,4.10
2022-11-09T09:53:24.729Z,4.28
2022-11-09T09:56:26.767Z,3.65
2022-11-09T09:59:02.916Z,3.97
2022-11-09T10:01:37.590Z,3.40
2022-11-09T10:04:15.310Z,3.30
2022-11-09T10:07:03.732Z,3.75
2022-11-09T10:09:45.526Z,2.92
2022-11-09T10:12:36.989Z,3.47
2022-11-09T10:15:11.955Z,4.20
2022-11-09T10:17:41.411Z,2.30
2022-11-09T10:20:26.107Z,2.90
2022-11-09T10:23:13.019Z,3.25
2022-11-09T10:26:03.017Z,4.00
2022-11-09T10:28:47.671Z,2.45
2022-11-09T10:31:21.968Z,2.88
2022-11-09T10:33:57.389Z,2.67
2022-11-09T10:38:58.895Z,3.10
2022-11-09T10:41:41.042Z,2.03
2022-11-09T10:44:18.293Z,2.35
2022-11-09T10:47:07.989Z,2.03
2022-11-09T10:49:36.278Z,2.10
2022-11-09T10:52:03.431Z,2.38
2022-11-09T10:54:37.564Z,2.00
2022-11-09T10:57:20.390Z,1.75
2022-11-09T10:59:54.611Z,2.38
2022-11-09T11:02:26.707Z,3.88
2022-11-09T11:05:23.850Z,1.75
2022-11-09T11:07:50.424Z,2.20
2022-11-09T11:10:16.850Z,2.30
2022-11-09T11:12:46.530Z,3.97
2022-11-09T11:15:38.550Z,4.70
2022-11-09T11:18:15.067Z,4.93
2022-11-09T11:20:41.445Z,4.78
2022-11-09T11:23:19.935Z,4.15
2022-11-09T11:25:59.563Z,5.32
2022-11-09T11:28:39.873Z,3.55
2022-11-09T11:31:18.235Z,5.05
2022-11-09T11:33:45.183Z,2.13
2022-11-09T11:36:19.428Z,2.60
2022-11-09T11:38:57.349Z,8.00
2022-11-09T11:41:45.431Z,4.72
2022-11-09T11:45:02.949Z,2.33
2022-11-09T11:47:58.218Z,3.95
2022-11-09T11:50:46.558Z,5.55
2022-11-09T11:53:25.325Z,3.88
2022-11-09T11:56:13.219Z,4.20
2022-11-09T11:59:03.320Z,2.17
2022-11-09T12:01:35.846Z,2.03
2022-11-09T12:04:30.987Z,2.70
2022-11-09T12:07:35.356Z,2.25
2022-11-09T12:10:20.988Z,2.38
2022-11-09T12:13:31.467Z,3.03
2022-11-09T12:16:07.580Z,4.75
2022-11-09T12:19:10.590Z,5.70
2022-11-09T12:21:54.130Z,5.40
2022-11-09T12:24:31.585Z,4.00
2022-11-09T12:27:32.305Z,5.07
2022-11-09T12:30:22.209Z,4.85
2022-11-09T12:33:12.378Z,2.65
2022-11-09T12:35:50.770Z,1.90
2022-11-09T12:38:21.710Z,5.15
2022-11-09T12:40:58.404Z,4.43
2022-11-09T12:43:44.968Z,2.67
2022-11-09T12:46:14.661Z,2.95
2022-11-09T12:48:41.010Z,2.83
2022-11-09T12:51:08.485Z,2.97
2022-11-09T12:53:36.951Z,1.80
2022-11-09T12:56:17.250Z,3.63
2022-11-09T12:58:44.213Z,2.50
2022-11-09T13:01:13.023Z,4.20
2022-11-09T13:03:58.584Z,2.33
2022-11-09T13:06:28.904Z,3.38
2022-11-09T13:08:59.483Z,3.63
2022-11-09T13:11:35.745Z,4.63
2022-11-09T13:14:25.948Z,1.60
2022-11-09T13:16:55.723Z,2.38
2022-11-09T13:19:34.180Z,1.52
2022-11-09T13:22:02.238Z,3.63
2022-11-09T13:24:31.271Z,2.40
2022-11-09T13:27:02.646Z,2.33
2022-11-09T13:29:41.134Z,4.97
2022-11-09T13:32:10.691Z,1.90
2022-11-09T13:34:43.099Z,5.95
2022-11-09T13:37:34.258Z,4.05
2022-11-09T13:40:00.623Z,3.83
2022-11-09T13:42:33.553Z,2.83
2022-11-09T13:45:24.727Z,3.63
2022-11-09T13:47:52.085Z,3.58
2022-11-09T13:50:22.003Z,3.80
2022-11-09T13:52:53.507Z,2.40
2022-11-09T13:55:37.972Z,3.35
2022-11-09T13:58:18.594Z,4.28
2022-11-09T14:00:47.259Z,2.50
2022-11-09T14:03:26.338Z,5.57
2022-11-09T14:05:57.315Z,2.63
2022-11-09T14:08:27.767Z,3.25
2022-11-09T14:11:19.490Z,2.53
2022-11-09T14:14:12.620Z,2.40
2022-11-09T14:17:04.163Z,3.35
2022-11-09T14:20:04.855Z,7.45
2022-11-09T14:22:35.824Z,4.18
2022-11-09T14:25:20.840Z,4.72
2022-11-09T14:27:57.137Z,3.33
2022-11-09T14:30:25.226Z,4.28
2022-11-09T14:32:56.330Z,4.53
2022-11-09T14:35:25.039Z,4.50
2022-11-09T14:37:54.490Z,3.42
2022-11-09T14:40:28.975Z,3.05
2022-11-09T14:42:55.321Z,3.40
2022-11-09T14:45:22.712Z,4.20
2022-11-09T14:47:52.120Z,4.43
2022-11-09T14:50:23.467Z,3.45
2022-11-09T14:52:52.723Z,4.10
2022-11-09T14:55:21.237Z,3.67
2022-11-09T14:57:49.725Z,4.85
2022-11-09T15:00:35.030Z,5.30
2022-11-09T15:03:22.463Z,4.00
2022-11-09T15:05:48.845Z,3.83
2022-11-09T15:08:22.499Z,4.07
2022-11-09T15:10:52.586Z,3.40
2022-11-09T15:13:27.787Z,5.60
2022-11-09T15:15:54.846Z,3.30
2022-11-09T15:18:33.905Z,3.15
2022-11-09T15:21:25.541Z,4.15
2022-11-09T15:24:03.701Z,8.43
2022-11-09T15:26:44.782Z,3.50
2022-11-09T15:29:34.819Z,4.22
2022-11-09T15:32:17.808Z,2.90
2022-11-09T15:34:56.205Z,3.00
2022-11-09T15:37:27.948Z,2.25
2022-11-09T15:39:54.238Z,3.58
2022-11-09T15:42:21.224Z,4.35
2022-11-09T15:44:55.429Z,3.55
2022-11-09T15:47:33.765Z,4.07
2022-11-09T15:50:03.563Z,2.67
2022-11-09T15:52:30.215Z,3.03
2022-11-09T15:54:56.842Z,3.53
2022-11-09T15:57:23.201Z,7.15
2022-11-09T15:59:51.275Z,6.28
2022-11-09T16:02:19.098Z,3.75
2022-11-09T16:04:45.419Z,5.88
2022-11-09T16:07:14.927Z,8.57
2022-11-09T16:09:41.990Z,3.50
2022-11-09T16:12:08.814Z,3.15
2022-11-09T16:14:35.550Z,4.78
2022-11-09T16:17:02.140Z,5.07
2022-11-09T16:19:28.544Z,3.28
2022-11-09T16:21:54.898Z,3.10
2022-11-09T16:24:21.387Z,4.88
2022-11-09T16:26:47.829Z,4.03
2022-11-09T16:29:14.152Z,4.28
2022-11-09T16:31:51.540Z,3.38
2022-11-09T16:34:18.923Z,3.58
2022-11-09T16:36:50.917Z,5.05
2022-11-09T16:39:20.506Z,5.82
2022-11-09T16:41:50.015Z,3.63
2022-11-09T16:44:19.969Z,3.75
2022-11-09T16:46:47.879Z,4.85
2022-11-09T16:49:17.823Z,4.82
2022-11-09T16:51:44.277Z,3.63
2022-11-09T16:54:10.641Z,5.05
2022-11-09T16:56:36.963Z,4.60
2022-11-09T16:59:03.474Z,5.05
2022-11-09T17:01:29.819Z,6.18
2022-11-09T17:03:57.451Z,6.20
2022-11-09T17:06:24.141Z,4.60
2022-11-09T17:08:51.052Z,4.95
2022-11-09T17:11:17.626Z,5.25
2022-11-09T17:13:44.094Z,4.90
2022-11-09T17:16:12.620Z,7.13
2022-11-09T17:18:39.490Z,6.00
2022-11-09T17:21:10.838Z,8.43
2022-11-09T17:23:37.636Z,4.68
2022-11-09T17:26:05.574Z,5.03
2022-11-09T17:28:32.308Z,7.13
2022-11-09T17:30:59.032Z,5.15
2022-11-09T17:33:25.347Z,3.53
2022-11-09T17:35:59.747Z,5.28
2022-11-09T17:38:26.419Z,6.30
2022-11-09T17:40:54.316Z,6.45
2022-11-09T17:43:20.744Z,7.28
2022-11-09T17:45:47.022Z,4.03
2022-11-09T17:48:13.347Z,6.13
2022-11-09T17:50:39.699Z,7.78
2022-11-09T17:53:05.992Z,6.07
2022-11-09T17:55:32.288Z,4.70
2022-11-09T17:57:58.592Z,6.55
2022-11-09T18:00:25.062Z,7.90
2022-11-09T18:02:55.379Z,3.95
2022-11-09T18:05:21.678Z,5.32
2022-11-09T18:07:47.987Z,8.32
2022-11-09T18:10:14.339Z,8.70
2022-11-09T18:12:40.619Z,8.95
2022-11-09T18:15:07.212Z,7.05
2022-11-09T18:17:33.630Z,7.18
2022-11-09T18:19:59.921Z,8.45
2022-11-09T18:22:26.206Z,8.40
2022-11-09T18:24:52.569Z,10.95
2022-11-09T18:27:18.897Z,6.78
2022-11-09T18:29:45.193Z,5.32
2022-11-09T18:32:11.519Z,5.70
2022-11-09T18:34:37.834Z,6.95
2022-11-09T18:37:04.161Z,8.48
2022-11-09T18:39:30.810Z,4.88
2022-11-09T18:42:00.165Z,6.72
2022-11-09T18:44:26.458Z,8.50
2022-11-09T18:46:52.744Z,8.45
2022-11-09T18:49:19.944Z,7.78
2022-11-09T18:51:46.260Z,6.57
2022-11-09T18:54:12.592Z,6.53
2022-11-09T18:56:39.023Z,5.78
2022-11-09T18:59:05.567Z,5.00
2022-11-09T19:01:31.909Z,6.55
2022-11-09T19:04:01.520Z,4.65
2022-11-09T19:06:28.248Z,6.63
2022-11-09T19:09:13.564Z,6.70
2022-11-09T19:11:39.979Z,5.47
2022-11-09T19:14:06.309Z,3.90
2022-11-09T19:16:32.762Z,8.57
2022-11-09T19:18:59.070Z,5.93
2022-11-09T19:21:25.828Z,4.15
2022-11-09T19:23:52.798Z,6.47
2022-11-09T19:26:19.967Z,4.63
2022-11-09T19:28:46.341Z,3.17
2022-11-09T19:31:14.710Z,5.88
2022-11-09T19:33:41.016Z,5.10
2022-11-09T19:36:29.095Z,3.97
2022-11-09T19:38:55.662Z,3.55
2022-11-09T19:41:22.160Z,4.65
2022-11-09T19:43:49.671Z,4.60
2022-11-09T19:46:16.651Z,7.07
2022-11-09T19:48:47.557Z,5.75
2022-11-09T19:51:16.483Z,3.97
2022-11-09T19:53:48.581Z,11.80
2022-11-09T19:56:14.862Z,9.15
2022-11-09T19:58:41.227Z,6.97
2022-11-09T20:01:11.560Z,4.82
2022-11-09T20:03:38.175Z,6.10
2022-11-09T20:06:06.659Z,10.30
2022-11-09T20:08:34.695Z,11.13
2022-11-09T20:11:06.575Z,17.20
2022-11-09T20:13:33.526Z,20.10
2022-11-09T20:16:05.326Z,16.70
2022-11-09T20:18:35.282Z,21.45
2022-11-09T20:21:02.145Z,18.77
2022-11-09T20:23:28.502Z,7.68
2022-11-09T20:26:09.534Z,9.77
2022-11-09T20:28:35.875Z,11.40
2022-11-09T20:31:09.260Z,8.25
2022-11-09T20:33:35.562Z,7.63
2022-11-09T20:36:01.830Z,7.07
2022-11-09T20:38:28.210Z,8.60
2022-11-09T20:40:56.010Z,6.00
2022-11-09T20:43:23.487Z,7.13
2022-11-09T20:45:50.633Z,6.18
2022-11-09T20:48:38.707Z,4.63
2022-11-09T20:51:05.350Z,10.35
2022-11-09T20:53:31.963Z,6.07
2022-11-09T20:55:58.338Z,7.13
2022-11-09T20:58:26.831Z,4.50
2022-11-09T21:01:20.435Z,6.50
2022-11-09T21:03:48.725Z,6.45
2022-11-09T21:06:15.192Z,5.85
2022-11-09T21:08:52.540Z,2.95
2022-11-09T21:11:19.711Z,3.90
2022-11-09T21:13:53.676Z,3.90
2022-11-09T21:16:21.566Z,4.78
2022-11-09T21:18:48.669Z,2.90
2022-11-09T21:21:20.323Z,5.18
2022-11-09T21:24:05.484Z,4.80
2022-11-09T21:26:50.740Z,6.78
2022-11-09T21:29:41.029Z,5.72
2022-11-09T21:32:08.228Z,3.92
2022-11-09T21:34:37.036Z,5.22
2022-11-09T21:37:04.852Z,8.63
2022-11-09T21:39:31.333Z,10.70
2022-11-09T21:41:57.636Z,4.28
2022-11-09T21:44:24.345Z,8.52
2022-11-09T21:46:50.660Z,6.75
2022-11-09T21:49:16.930Z,4.07
2022-11-09T21:51:43.338Z,5.05
2022-11-09T21:54:10.379Z,9.93
2022-11-09T21:56:36.875Z,6.47
2022-11-09T21:59:04.157Z,5.47
2022-11-09T22:01:30.533Z,4.38
2022-11-09T22:03:57.016Z,4.25
2022-11-09T22:06:23.589Z,7.60
2022-11-09T22:08:51.397Z,8.90
2022-11-09T22:11:20.031Z,6.05
2022-11-09T22:14:04.842Z,3.90
2022-11-09T22:16:33.812Z,4.15
2022-11-09T22:19:22.037Z,4.22
2022-11-09T22:21:48.342Z,10.27
2022-11-09T22:24:14.662Z,5.25
2022-11-09T22:26:40.970Z,9.60
2022-11-09T22:29:07.356Z,3.83
2022-11-09T22:31:33.686Z,10.02
2022-11-09T22:34:00.049Z,6.22
2022-11-09T22:36:26.360Z,8.75
2022-11-09T22:38:52.678Z,3.55
2022-11-09T22:41:19.488Z,6.25
2022-11-09T22:43:45.849Z,5.40
2022-11-09T22:46:14.842Z,6.75
2022-11-09T22:48:43.120Z,4.13
2022-11-09T22:51:11.910Z,8.57
2022-11-09T22:53:38.399Z,6.90
2022-11-09T22:56:05.585Z,7.63
2022-11-09T22:58:32.030Z,5.38
2022-11-09T23:01:16.984Z,4.25
2022-11-09T23:03:43.358Z,5.47
2022-11-09T23:06:13.127Z,8.98
2022-11-09T23:08:39.472Z,6.25
2022-11-09T23:11:14.563Z,6.22
2022-11-09T23:13:41.444Z,6.25
2022-11-09T23:16:10.360Z,5.22
2022-11-09T23:18:55.987Z,5.20
2022-11-09T23:21:33.526Z,6.18
2022-11-09T23:24:04.933Z,5.45
2022-11-09T23:26:32.772Z,4.22
2022-11-09T23:28:59.931Z,4.25
2022-11-09T23:31:26.894Z,12.43
2022-11-09T23:33:57.385Z,5.85
2022-11-09T23:36:25.738Z,5.15
2022-11-09T23:38:52.164Z,6.38
2022-11-09T23:41:19.028Z,5.43
2022-11-09T23:43:49.333Z,9.88
2022-11-09T23:46:16.991Z,5.72
2022-11-09T23:48:43.337Z,7.63
2022-11-09T23:51:10.238Z,6.85
2022-11-09T23:53:36.699Z,4.70
2022-11-09T23:56:08.765Z,9.13
2022-11-09T23:58:35.146Z,9.75
